createdAt,value
2023-10-05T00:00:19.489Z,101823.56
2023-10-05T00:00:49.935Z,101820.05
2023-10-05T00:01:20.390Z,101823.89
2023-10-05T00:01:50.851Z,101825.91
2023-10-05T00:02:21.273Z,101825.74
2023-10-05T00:02:51.716Z,101824.92
2023-10-05T00:03:22.164Z,101824.56
2023-10-05T00:03:52.667Z,101826.75
2023-10-05T00:04:23.162Z,101831.11
2023-10-05T00:04:53.559Z,101824.55
2023-10-05T00:05:23.990Z,101826.92
2023-10-05T00:05:54.411Z,101823.89
2023-10-05T00:06:24.868Z,101823.71
2023-10-05T00:06:55.364Z,101825.41
2023-10-05T00:07:25.900Z,101826.11
2023-10-05T00:07:56.305Z,101824.11
2023-10-05T00:08:26.728Z,101824.95
2023-10-05T00:08:57.170Z,101823.59
2023-10-05T00:09:27.579Z,101821.08
2023-10-05T00:09:58.280Z,101829.30
2023-10-05T00:10:29.085Z,101829.14
2023-10-05T00:10:59.513Z,101825.77
2023-10-05T00:11:29.989Z,101823.56
2023-10-05T00:12:00.380Z,101820.21
2023-10-05T00:12:30.803Z,101819.02
2023-10-05T00:13:01.238Z,101819.69
2023-10-05T00:13:31.652Z,101821.02
2023-10-05T00:14:02.079Z,101823.39
2023-10-05T00:14:32.514Z,101821.39
2023-10-05T00:15:02.971Z,101817.66
2023-10-05T00:15:33.418Z,101818.86
2023-10-05T00:16:03.914Z,101819.02
2023-10-05T00:16:34.325Z,101816.66
2023-10-05T00:17:04.760Z,101822.21
2023-10-05T00:17:35.189Z,101818.52
2023-10-05T00:18:05.632Z,101824.09
2023-10-05T00:18:36.044Z,101822.08
2023-10-05T00:19:06.615Z,101821.42
2023-10-05T00:19:37.252Z,101819.23
2023-10-05T00:20:07.684Z,101822.41
2023-10-05T00:20:38.097Z,101820.41
2023-10-05T00:21:08.547Z,101820.22
2023-10-05T00:21:38.968Z,101821.23
2023-10-05T00:22:09.409Z,101823.57
2023-10-05T00:22:39.823Z,101819.72
2023-10-05T00:23:10.248Z,101820.22
2023-10-05T00:23:40.681Z,101822.58
2023-10-05T00:24:11.102Z,101822.72
2023-10-05T00:24:41.540Z,101827.77
2023-10-05T00:25:11.972Z,101828.45
2023-10-05T00:25:42.409Z,101824.43
2023-10-05T00:26:12.843Z,101830.95
2023-10-05T00:26:43.286Z,101830.63
2023-10-05T00:27:13.737Z,101828.63
2023-10-05T00:27:44.185Z,101829.14
2023-10-05T00:28:14.651Z,101826.61
2023-10-05T00:28:45.030Z,101824.44
2023-10-05T00:29:15.464Z,101828.98
2023-10-05T00:29:45.889Z,101824.78
2023-10-05T00:30:16.314Z,101826.45
2023-10-05T00:30:46.803Z,101823.44
2023-10-05T00:31:17.274Z,101821.09
2023-10-05T00:31:47.726Z,101823.09
2023-10-05T00:32:18.158Z,101818.86
2023-10-05T00:32:48.642Z,101819.70
2023-10-05T00:33:19.058Z,101818.04
2023-10-05T00:33:49.489Z,101817.38
2023-10-05T00:34:19.898Z,101817.05
2023-10-05T00:34:50.315Z,101820.56
2023-10-05T00:35:20.749Z,101813.17
2023-10-05T00:35:51.184Z,101814.54
2023-10-05T00:36:21.619Z,101811.17
2023-10-05T00:36:52.072Z,101812.52
2023-10-05T00:37:22.503Z,101814.38
2023-10-05T00:37:52.915Z,101812.18
2023-10-05T00:38:23.311Z,101809.66
2023-10-05T00:38:53.746Z,101812.86
2023-10-05T00:39:24.161Z,101810.86
2023-10-05T00:39:54.659Z,101806.12
2023-10-05T00:40:25.066Z,101807.95
2023-10-05T00:40:55.467Z,101813.66
2023-10-05T00:41:25.892Z,101807.61
2023-10-05T00:41:56.327Z,101809.66
2023-10-05T00:42:26.742Z,101806.45
2023-10-05T00:42:57.158Z,101812.34
2023-10-05T00:43:27.735Z,101812.84
2023-10-05T00:43:58.118Z,101811.67
2023-10-05T00:44:28.538Z,101810.86
2023-10-05T00:44:58.980Z,101811.02
2023-10-05T00:45:29.530Z,101811.36
2023-10-05T00:46:00.117Z,101807.27
2023-10-05T00:46:30.818Z,101805.45
2023-10-05T00:47:01.318Z,101806.79
2023-10-05T00:47:31.787Z,101804.75
2023-10-05T00:48:02.199Z,101804.59
2023-10-05T00:48:32.615Z,101806.48
2023-10-05T00:49:03.111Z,101802.80
2023-10-05T00:49:33.628Z,101808.01
2023-10-05T00:50:04.076Z,101807.69
2023-10-05T00:50:34.515Z,101801.28
2023-10-05T00:51:04.948Z,101803.81
2023-10-05T00:51:35.384Z,101804.14
2023-10-05T00:52:05.814Z,101803.14
2023-10-05T00:52:36.215Z,101800.96
2023-10-05T00:53:06.632Z,101800.62
2023-10-05T00:53:37.059Z,101797.75
2023-10-05T00:54:07.485Z,101801.62
2023-10-05T00:54:37.914Z,101802.46
2023-10-05T00:55:08.426Z,101805.67
2023-10-05T00:55:38.816Z,101802.81
2023-10-05T00:56:09.234Z,101804.80
2023-10-05T00:56:39.660Z,101806.50
2023-10-05T00:57:10.123Z,101802.11
2023-10-05T00:57:40.524Z,101804.98
2023-10-05T00:58:10.998Z,101803.47
2023-10-05T00:58:41.428Z,101803.47
2023-10-05T00:59:11.849Z,101800.94
2023-10-05T00:59:42.284Z,101801.79
2023-10-05T01:00:12.715Z,101799.44
2023-10-05T01:00:43.139Z,101799.08
2023-10-05T01:01:13.686Z,101800.11
2023-10-05T01:01:44.220Z,101799.77
2023-10-05T01:02:14.810Z,101800.11
2023-10-05T01:02:45.356Z,101802.11
2023-10-05T01:03:15.903Z,101802.61
2023-10-05T01:03:46.391Z,101802.78
2023-10-05T01:04:17.057Z,101800.58
2023-10-05T01:04:47.726Z,101796.04
2023-10-05T01:05:18.268Z,101799.23
2023-10-05T01:05:48.714Z,101800.23
2023-10-05T01:06:19.149Z,101798.56
2023-10-05T01:06:49.614Z,101795.20
2023-10-05T01:07:20.155Z,101794.20
2023-10-05T01:07:50.881Z,101789.69
2023-10-05T01:08:21.416Z,101790.02
2023-10-05T01:08:51.840Z,101787.67
2023-10-05T01:09:22.277Z,101788.68
2023-10-05T01:09:52.773Z,101784.80
2023-10-05T01:10:23.260Z,101781.92
2023-10-05T01:10:53.642Z,101773.69
2023-10-05T01:11:24.077Z,101784.59
2023-10-05T01:11:54.494Z,101778.39
2023-10-05T01:12:24.947Z,101775.73
2023-10-05T01:12:55.529Z,101775.56
2023-10-05T01:13:26.231Z,101778.76
2023-10-05T01:13:56.630Z,101776.59
2023-10-05T01:14:27.056Z,101780.94
2023-10-05T01:14:57.486Z,101781.62
2023-10-05T01:15:27.909Z,101777.58
2023-10-05T01:15:58.356Z,101776.91
2023-10-05T01:16:28.862Z,101777.58
2023-10-05T01:16:59.411Z,101774.39
2023-10-05T01:17:29.876Z,101772.88
2023-10-05T01:18:00.310Z,101769.36
2023-10-05T01:18:30.720Z,101764.83
2023-10-05T01:19:01.261Z,101768.53
2023-10-05T01:19:31.702Z,101767.53
2023-10-05T01:20:02.114Z,101765.00
2023-10-05T01:20:32.553Z,101765.17
2023-10-05T01:21:02.965Z,101765.66
2023-10-05T01:21:33.384Z,101764.34
2023-10-05T01:22:03.836Z,101764.66
2023-10-05T01:22:34.348Z,101759.64
2023-10-05T01:23:04.827Z,101761.30
2023-10-05T01:23:35.244Z,101759.12
2023-10-05T01:24:05.770Z,101757.61
2023-10-05T01:24:36.137Z,101753.57
2023-10-05T01:25:06.644Z,101754.56
2023-10-05T01:25:37.138Z,101754.41
2023-10-05T01:26:07.543Z,101752.38
2023-10-05T01:26:37.967Z,101749.54
2023-10-05T01:27:08.395Z,101751.06
2023-10-05T01:27:38.842Z,101747.19
2023-10-05T01:28:09.279Z,101748.02
2023-10-05T01:28:39.720Z,101753.89
2023-10-05T01:29:10.165Z,101747.86
2023-10-05T01:29:40.607Z,101751.05
2023-10-05T01:30:11.041Z,101747.69
2023-10-05T01:30:41.448Z,101750.68
2023-10-05T01:31:11.972Z,101753.72
2023-10-05T01:31:42.460Z,101752.38
2023-10-05T01:32:12.948Z,101748.83
2023-10-05T01:32:43.379Z,101746.66
2023-10-05T01:33:13.805Z,101742.78
2023-10-05T01:33:44.284Z,101746.31
2023-10-05T01:34:14.706Z,101744.62
2023-10-05T01:34:45.134Z,101745.47
2023-10-05T01:35:15.600Z,101742.78
2023-10-05T01:35:45.999Z,101734.86
2023-10-05T01:36:16.419Z,101736.56
2023-10-05T01:36:46.841Z,101740.09
2023-10-05T01:37:17.278Z,101736.56
2023-10-05T01:37:47.788Z,101739.08
2023-10-05T01:38:18.246Z,101734.38
2023-10-05T01:38:48.693Z,101736.90
2023-10-05T01:39:19.107Z,101739.25
2023-10-05T01:39:49.552Z,101735.27
2023-10-05T01:40:20.031Z,101736.27
2023-10-05T01:40:50.454Z,101741.33
2023-10-05T01:41:20.873Z,101736.44
2023-10-05T01:41:51.305Z,101740.48
2023-10-05T01:42:21.733Z,101738.80
2023-10-05T01:42:52.234Z,101738.80
2023-10-05T01:43:22.696Z,101738.11
2023-10-05T01:43:53.289Z,101740.80
2023-10-05T01:44:23.729Z,101740.97
2023-10-05T01:44:54.167Z,101739.30
2023-10-05T01:45:24.618Z,101740.30
2023-10-05T01:45:55.114Z,101740.64
2023-10-05T01:46:25.675Z,101738.95
2023-10-05T01:46:56.144Z,101740.97
2023-10-05T01:47:26.525Z,101743.32
2023-10-05T01:47:56.974Z,101737.77
2023-10-05T01:48:27.386Z,101744.83
2023-10-05T01:48:57.874Z,101737.44
2023-10-05T01:49:28.344Z,101738.11
2023-10-05T01:49:58.744Z,101735.41
2023-10-05T01:50:29.168Z,101731.22
2023-10-05T01:50:59.590Z,101728.17
2023-10-05T01:51:30.046Z,101735.22
2023-10-05T01:52:00.560Z,101728.16
2023-10-05T01:52:31.062Z,101728.33
2023-10-05T01:53:01.447Z,101735.25
2023-10-05T01:53:31.877Z,101739.80
2023-10-05T01:54:02.309Z,101740.12
2023-10-05T01:54:32.731Z,101737.59
2023-10-05T01:55:03.254Z,101738.59
2023-10-05T01:55:33.704Z,101732.55
2023-10-05T01:56:04.124Z,101736.41
2023-10-05T01:56:34.545Z,101740.46
2023-10-05T01:57:05.202Z,101741.79
2023-10-05T01:57:35.638Z,101734.38
2023-10-05T01:58:06.200Z,101742.27
2023-10-05T01:58:36.635Z,101739.44
2023-10-05T01:59:07.259Z,101741.44
2023-10-05T01:59:38.209Z,101745.13
2023-10-05T02:00:08.654Z,101742.31
2023-10-05T02:00:39.357Z,101738.42
2023-10-05T02:01:09.977Z,101735.25
2023-10-05T02:01:40.496Z,101737.77
2023-10-05T02:02:11.267Z,101736.77
2023-10-05T02:02:41.965Z,101737.94
2023-10-05T02:03:12.513Z,101737.60
2023-10-05T02:03:43.122Z,101733.40
2023-10-05T02:04:13.674Z,101728.02
2023-10-05T02:04:44.073Z,101720.30
2023-10-05T02:05:14.492Z,101723.31
2023-10-05T02:05:44.918Z,101733.40
2023-10-05T02:06:15.341Z,101727.85
2023-10-05T02:06:45.770Z,101729.38
2023-10-05T02:07:16.237Z,101726.36
2023-10-05T02:07:46.666Z,101728.71
2023-10-05T02:08:17.088Z,101729.56
2023-10-05T02:08:47.509Z,101729.41
2023-10-05T02:09:17.926Z,101728.89
2023-10-05T02:09:48.367Z,101725.72
2023-10-05T02:10:18.842Z,101726.52
2023-10-05T02:10:49.237Z,101728.55
2023-10-05T02:11:19.677Z,101728.22
2023-10-05T02:11:50.106Z,101727.20
2023-10-05T02:12:20.537Z,101728.20
2023-10-05T02:12:50.991Z,101725.01
2023-10-05T02:13:21.427Z,101723.18
2023-10-05T02:13:51.822Z,101728.71
2023-10-05T02:14:22.248Z,101721.12
2023-10-05T02:14:52.672Z,101714.23
2023-10-05T02:15:23.087Z,101716.42
2023-10-05T02:15:53.638Z,101716.25
2023-10-05T02:16:24.257Z,101711.04
2023-10-05T02:16:54.800Z,101714.74
2023-10-05T02:17:25.240Z,101716.94
2023-10-05T02:17:55.666Z,101719.12
2023-10-05T02:18:26.219Z,101721.83
2023-10-05T02:18:56.669Z,101715.94
2023-10-05T02:19:27.266Z,101719.14
2023-10-05T02:19:57.721Z,101718.80
2023-10-05T02:20:28.251Z,101711.73
2023-10-05T02:20:58.742Z,101710.70
2023-10-05T02:21:29.171Z,101707.52
2023-10-05T02:21:59.636Z,101707.84
2023-10-05T02:22:30.076Z,101713.27
2023-10-05T02:23:00.467Z,101713.77
2023-10-05T02:23:30.930Z,101716.95
2023-10-05T02:24:01.378Z,101712.44
2023-10-05T02:24:31.855Z,101701.87
2023-10-05T02:25:02.285Z,101706.41
2023-10-05T02:25:32.768Z,101708.42
2023-10-05T02:26:03.182Z,101710.09
2023-10-05T02:26:33.620Z,101711.61
2023-10-05T02:27:04.054Z,101701.17
2023-10-05T02:27:34.477Z,101705.06
2023-10-05T02:28:04.935Z,101704.35
2023-10-05T02:28:35.394Z,101705.06
2023-10-05T02:29:05.973Z,101704.88
2023-10-05T02:29:36.523Z,101702.20
2023-10-05T02:30:06.951Z,101699.17
2023-10-05T02:30:37.364Z,101700.50
2023-10-05T02:31:07.874Z,101700.66
2023-10-05T02:31:38.375Z,101699.62
2023-10-05T02:32:08.823Z,101697.78
2023-10-05T02:32:39.272Z,101699.48
2023-10-05T02:33:09.709Z,101698.10
2023-10-05T02:33:40.090Z,101697.27
2023-10-05T02:34:10.548Z,101695.59
2023-10-05T02:34:40.992Z,101697.66
2023-10-05T02:35:11.410Z,101697.50
2023-10-05T02:35:41.842Z,101695.17
2023-10-05T02:36:12.291Z,101699.71
2023-10-05T02:36:42.717Z,101697.34
2023-10-05T02:37:13.245Z,101695.98
2023-10-05T02:37:43.652Z,101700.03
2023-10-05T02:38:14.077Z,101697.17
2023-10-05T02:38:44.527Z,101686.73
2023-10-05T02:39:14.952Z,101696.16
2023-10-05T02:39:45.373Z,101694.98
2023-10-05T02:40:15.840Z,101691.14
2023-10-05T02:40:46.245Z,101689.12
2023-10-05T02:41:16.682Z,101688.25
2023-10-05T02:41:47.105Z,101686.20
2023-10-05T02:42:17.551Z,101685.71
2023-10-05T02:42:47.955Z,101689.08
2023-10-05T02:43:18.418Z,101686.39
2023-10-05T02:43:48.843Z,101685.56
2023-10-05T02:44:19.236Z,101684.88
2023-10-05T02:44:49.662Z,101683.53
2023-10-05T02:45:20.088Z,101687.91
2023-10-05T02:45:50.600Z,101685.86
2023-10-05T02:46:21.044Z,101683.67
2023-10-05T02:46:51.466Z,101682.98
2023-10-05T02:47:21.998Z,101685.69
2023-10-05T02:47:52.492Z,101681.66
2023-10-05T02:48:22.941Z,101685.56
2023-10-05T02:48:53.425Z,101684.03
2023-10-05T02:49:23.928Z,101682.37
2023-10-05T02:49:54.359Z,101683.38
2023-10-05T02:50:24.774Z,101685.71
2023-10-05T02:50:55.208Z,101686.57
2023-10-05T02:51:25.630Z,101680.02
2023-10-05T02:51:56.195Z,101676.66
2023-10-05T02:52:26.753Z,101680.35
2023-10-05T02:52:57.173Z,101683.88
2023-10-05T02:53:27.616Z,101679.34
2023-10-05T02:53:58.046Z,101678.66
2023-10-05T02:54:28.470Z,101679.98
2023-10-05T02:54:58.906Z,101675.61
2023-10-05T02:55:29.383Z,101676.65
2023-10-05T02:55:59.783Z,101678.15
2023-10-05T02:56:30.218Z,101680.69
2023-10-05T02:57:00.641Z,101682.03
2023-10-05T02:57:31.069Z,101677.46
2023-10-05T02:58:01.529Z,101679.17
2023-10-05T02:58:31.936Z,101680.50
2023-10-05T02:59:02.377Z,101680.00
2023-10-05T02:59:32.780Z,101674.30
2023-10-05T03:00:03.268Z,101679.00
2023-10-05T03:00:33.759Z,101678.63
2023-10-05T03:01:04.257Z,101676.80
2023-10-05T03:01:34.906Z,101678.82
2023-10-05T03:02:05.367Z,101677.49
2023-10-05T03:02:35.887Z,101678.00
2023-10-05T03:03:06.427Z,101679.51
2023-10-05T03:03:37.016Z,101681.36
2023-10-05T03:04:07.529Z,101676.63
2023-10-05T03:04:38.030Z,101675.62
2023-10-05T03:05:08.555Z,101677.83
2023-10-05T03:05:38.941Z,101676.98
2023-10-05T03:06:09.389Z,101677.49
2023-10-05T03:06:39.805Z,101674.47
2023-10-05T03:07:10.233Z,101674.80
2023-10-05T03:07:40.641Z,101677.16
2023-10-05T03:08:11.077Z,101674.80
2023-10-05T03:08:41.501Z,101676.63
2023-10-05T03:09:11.917Z,101677.66
2023-10-05T03:09:42.338Z,101670.75
2023-10-05T03:10:12.813Z,101677.31
2023-10-05T03:10:43.217Z,101673.65
2023-10-05T03:11:13.633Z,101672.67
2023-10-05T03:11:44.058Z,101674.84
2023-10-05T03:12:14.479Z,101668.12
2023-10-05T03:12:44.913Z,101669.26
2023-10-05T03:13:15.377Z,101664.72
2023-10-05T03:13:45.792Z,101664.72
2023-10-05T03:14:16.216Z,101667.77
2023-10-05T03:14:46.651Z,101663.38
2023-10-05T03:15:17.065Z,101664.69
2023-10-05T03:15:47.476Z,101672.58
2023-10-05T03:16:17.951Z,101671.74
2023-10-05T03:16:48.373Z,101668.05
2023-10-05T03:17:18.848Z,101668.25
2023-10-05T03:17:49.258Z,101669.59
2023-10-05T03:18:19.682Z,101664.20
2023-10-05T03:18:50.103Z,101667.89
2023-10-05T03:19:20.554Z,101671.27
2023-10-05T03:19:50.988Z,101667.44
2023-10-05T03:20:21.416Z,101667.91
2023-10-05T03:20:51.843Z,101664.91
2023-10-05T03:21:22.273Z,101668.92
2023-10-05T03:21:52.707Z,101660.53
2023-10-05T03:22:23.139Z,101663.04
2023-10-05T03:22:53.539Z,101663.24
2023-10-05T03:23:24.008Z,101668.94
2023-10-05T03:23:54.406Z,101665.42
2023-10-05T03:24:24.833Z,101664.56
2023-10-05T03:24:55.665Z,101662.72
2023-10-05T03:25:26.323Z,101660.22
2023-10-05T03:25:56.717Z,101658.53
2023-10-05T03:26:27.139Z,101661.56
2023-10-05T03:26:57.567Z,101659.55
2023-10-05T03:27:27.992Z,101659.70
2023-10-05T03:27:58.453Z,101663.04
2023-10-05T03:28:28.977Z,101667.07
2023-10-05T03:28:59.390Z,101667.07
2023-10-05T03:29:29.845Z,101667.05
2023-10-05T03:30:00.264Z,101663.20
2023-10-05T03:30:30.679Z,101663.02
2023-10-05T03:31:01.179Z,101662.52
2023-10-05T03:31:31.694Z,101658.14
2023-10-05T03:32:02.125Z,101655.83
2023-10-05T03:32:32.729Z,101654.97
2023-10-05T03:33:03.361Z,101657.81
2023-10-05T03:33:33.739Z,101656.48
2023-10-05T03:34:04.231Z,101661.39
2023-10-05T03:34:34.655Z,101661.24
2023-10-05T03:35:05.058Z,101660.03
2023-10-05T03:35:35.481Z,101662.57
2023-10-05T03:36:05.923Z,101656.19
2023-10-05T03:36:36.321Z,101659.36
2023-10-05T03:37:06.768Z,101656.02
2023-10-05T03:37:37.165Z,101653.68
2023-10-05T03:38:07.588Z,101656.34
2023-10-05T03:38:38.015Z,101653.50
2023-10-05T03:39:08.465Z,101654.67
2023-10-05T03:39:38.884Z,101656.48
2023-10-05T03:40:09.338Z,101654.50
2023-10-05T03:40:39.841Z,101655.53
2023-10-05T03:41:10.228Z,101657.55
2023-10-05T03:41:40.658Z,101651.84
2023-10-05T03:42:11.084Z,101656.38
2023-10-05T03:42:41.532Z,101650.64
2023-10-05T03:43:14.460Z,101658.37
2023-10-05T03:43:45.919Z,101655.66
2023-10-05T03:44:16.336Z,101655.48
2023-10-05T03:44:46.777Z,101654.15
2023-10-05T03:45:17.182Z,101651.96
2023-10-05T03:45:47.607Z,101651.80
2023-10-05T03:46:18.119Z,101656.15
2023-10-05T03:46:48.613Z,101652.66
2023-10-05T03:47:19.031Z,101651.48
2023-10-05T03:47:49.494Z,101655.84
2023-10-05T03:48:19.898Z,101652.15
2023-10-05T03:48:50.340Z,101651.81
2023-10-05T03:49:20.796Z,101649.97
2023-10-05T03:49:51.225Z,101648.78
2023-10-05T03:50:21.650Z,101654.98
2023-10-05T03:50:52.069Z,101654.13
2023-10-05T03:51:22.489Z,101651.66
2023-10-05T03:51:53.138Z,101650.64
2023-10-05T03:52:23.642Z,101654.17
2023-10-05T03:52:54.018Z,101652.82
2023-10-05T03:53:24.448Z,101651.95
2023-10-05T03:53:54.872Z,101650.47
2023-10-05T03:54:25.297Z,101655.53
2023-10-05T03:54:55.713Z,101652.82
2023-10-05T03:55:26.298Z,101653.33
2023-10-05T03:55:56.738Z,101652.52
2023-10-05T03:56:27.173Z,101653.70
2023-10-05T03:56:57.594Z,101654.86
2023-10-05T03:57:28.014Z,101651.66
2023-10-05T03:57:58.545Z,101646.62
2023-10-05T03:58:29.094Z,101649.31
2023-10-05T03:58:59.500Z,101643.94
2023-10-05T03:59:29.932Z,101639.90
2023-10-05T04:00:01.976Z,101641.61
2023-10-05T04:00:32.707Z,101639.11
2023-10-05T04:01:03.208Z,101643.48
2023-10-05T04:01:33.707Z,101640.44
2023-10-05T04:02:04.125Z,101636.89
2023-10-05T04:02:34.583Z,101638.42
2023-10-05T04:03:05.026Z,101637.55
2023-10-05T04:03:35.498Z,101633.56
2023-10-05T04:04:05.937Z,101631.68
2023-10-05T04:04:36.438Z,101633.17
2023-10-05T04:05:06.873Z,101629.46
2023-10-05T04:05:37.293Z,101633.19
2023-10-05T04:06:07.742Z,101635.36
2023-10-05T04:06:38.167Z,101638.22
2023-10-05T04:07:08.655Z,101634.38
2023-10-05T04:07:39.057Z,101637.88
2023-10-05T04:08:09.522Z,101637.40
2023-10-05T04:08:39.927Z,101639.75
2023-10-05T04:09:10.336Z,101635.53
2023-10-05T04:09:40.801Z,101631.01
2023-10-05T04:10:11.215Z,101637.53
2023-10-05T04:10:41.611Z,101637.03
2023-10-05T04:11:12.032Z,101640.42
2023-10-05T04:11:42.471Z,101638.08
2023-10-05T04:12:12.900Z,101640.57
2023-10-05T04:12:43.329Z,101636.22
2023-10-05T04:13:13.754Z,101641.59
2023-10-05T04:13:44.177Z,101631.34
2023-10-05T04:14:14.594Z,101632.52
2023-10-05T04:14:45.018Z,101633.22
2023-10-05T04:15:15.489Z,101625.67
2023-10-05T04:15:45.875Z,101631.53
2023-10-05T04:16:16.333Z,101628.00
2023-10-05T04:16:46.762Z,101626.64
2023-10-05T04:17:17.203Z,101628.17
2023-10-05T04:17:47.676Z,101632.86
2023-10-05T04:18:18.056Z,101626.14
2023-10-05T04:18:48.490Z,101630.00
2023-10-05T04:19:19.058Z,101635.88
2023-10-05T04:19:49.598Z,101626.98
2023-10-05T04:20:19.994Z,101628.50
2023-10-05T04:20:53.721Z,101628.50
2023-10-05T04:21:25.060Z,101624.80
2023-10-05T04:21:55.571Z,101622.61
2023-10-05T04:22:26.068Z,101624.62
2023-10-05T04:22:56.512Z,101623.11
2023-10-05T04:23:27.286Z,101625.28
2023-10-05T04:23:58.175Z,101628.98
2023-10-05T04:24:28.594Z,101627.16
2023-10-05T04:24:59.037Z,101626.30
2023-10-05T04:25:29.485Z,101626.14
2023-10-05T04:25:59.878Z,101624.00
2023-10-05T04:26:30.289Z,101621.30
2023-10-05T04:27:00.735Z,101618.77
2023-10-05T04:27:31.155Z,101614.88
2023-10-05T04:28:01.619Z,101616.22
2023-10-05T04:28:32.055Z,101614.91
2023-10-05T04:29:02.464Z,101613.40
2023-10-05T04:29:32.898Z,101614.22
2023-10-05T04:30:03.317Z,101614.19
2023-10-05T04:30:33.837Z,101610.86
2023-10-05T04:31:04.332Z,101610.52
2023-10-05T04:31:34.816Z,101615.89
2023-10-05T04:32:05.230Z,101617.92
2023-10-05T04:32:35.674Z,101612.56
2023-10-05T04:33:06.160Z,101617.09
2023-10-05T04:33:36.588Z,101613.91
2023-10-05T04:34:07.057Z,101620.26
2023-10-05T04:34:37.503Z,101616.05
2023-10-05T04:35:08.003Z,101613.03
2023-10-05T04:35:38.367Z,101620.72
2023-10-05T04:36:08.820Z,101617.04
2023-10-05T04:36:39.450Z,101604.44
2023-10-05T04:37:09.886Z,101613.05
2023-10-05T04:37:40.294Z,101608.67
2023-10-05T04:38:10.718Z,101611.18
2023-10-05T04:38:41.160Z,101610.67
2023-10-05T04:39:11.573Z,101603.95
2023-10-05T04:39:41.994Z,101608.48
2023-10-05T04:40:12.456Z,101610.67
2023-10-05T04:40:42.871Z,101609.65
2023-10-05T04:41:13.300Z,101608.30
2023-10-05T04:41:43.728Z,101610.00
2023-10-05T04:42:14.147Z,101608.16
2023-10-05T04:42:44.567Z,101610.84
2023-10-05T04:43:15.028Z,101608.32
2023-10-05T04:43:45.482Z,101608.62
2023-10-05T04:44:15.913Z,101613.01
2023-10-05T04:44:46.342Z,101609.85
2023-10-05T04:45:16.764Z,101608.70
2023-10-05T04:45:47.217Z,101609.35
2023-10-05T04:46:17.648Z,101603.30
2023-10-05T04:46:48.100Z,101617.58
2023-10-05T04:47:18.520Z,101603.82
2023-10-05T04:47:48.975Z,101604.47
2023-10-05T04:48:19.376Z,101605.98
2023-10-05T04:48:49.821Z,101600.80
2023-10-05T04:49:20.308Z,101601.30
2023-10-05T04:49:50.723Z,101600.12
2023-10-05T04:50:21.151Z,101600.92
2023-10-05T04:50:51.578Z,101594.55
2023-10-05T04:51:22.012Z,101598.11
2023-10-05T04:51:52.441Z,101594.58
2023-10-05T04:52:22.877Z,101596.42
2023-10-05T04:52:53.289Z,101593.27
2023-10-05T04:53:23.707Z,101595.42
2023-10-05T04:53:54.129Z,101587.88
2023-10-05T04:54:24.560Z,101591.38
2023-10-05T04:54:55.009Z,101595.25
2023-10-05T04:55:25.414Z,101595.57
2023-10-05T04:55:55.857Z,101598.78
2023-10-05T04:56:26.295Z,101594.56
2023-10-05T04:56:56.714Z,101598.61
2023-10-05T04:57:27.141Z,101593.41
2023-10-05T04:57:57.606Z,101594.08
2023-10-05T04:58:28.035Z,101593.91
2023-10-05T04:58:58.463Z,101589.05
2023-10-05T04:59:28.895Z,101589.39
2023-10-05T04:59:59.323Z,101590.73
2023-10-05T05:00:29.777Z,101589.88
2023-10-05T05:01:00.291Z,101586.14
2023-10-05T05:01:30.794Z,101585.95
2023-10-05T05:02:01.249Z,101592.48
2023-10-05T05:02:31.703Z,101586.98
2023-10-05T05:03:02.172Z,101583.82
2023-10-05T05:03:32.659Z,101588.17
2023-10-05T05:04:03.151Z,101589.50
2023-10-05T05:04:33.657Z,101589.88
2023-10-05T05:05:04.043Z,101590.71
2023-10-05T05:05:34.491Z,101587.31
2023-10-05T05:06:04.936Z,101588.32
2023-10-05T05:06:35.358Z,101584.64
2023-10-05T05:07:05.800Z,101584.62
2023-10-05T05:07:36.242Z,101587.50
2023-10-05T05:08:06.670Z,101581.80
2023-10-05T05:08:37.099Z,101585.17
2023-10-05T05:09:07.700Z,101583.83
2023-10-05T05:09:38.223Z,101586.83
2023-10-05T05:10:08.704Z,101586.02
2023-10-05T05:10:39.167Z,101585.70
2023-10-05T05:11:09.662Z,101587.72
2023-10-05T05:11:40.079Z,101591.73
2023-10-05T05:12:10.538Z,101590.72
2023-10-05T05:12:40.955Z,101590.88
2023-10-05T05:13:11.394Z,101590.20
2023-10-05T05:13:41.778Z,101585.47
2023-10-05T05:14:12.222Z,101585.84
2023-10-05T05:14:42.641Z,101587.33
2023-10-05T05:15:13.078Z,101588.68
2023-10-05T05:15:43.510Z,101587.00
2023-10-05T05:16:13.995Z,101589.03
2023-10-05T05:16:44.568Z,101585.20
2023-10-05T05:17:15.038Z,101588.03
2023-10-05T05:17:45.670Z,101581.66
2023-10-05T05:18:16.789Z,101581.98
2023-10-05T05:18:47.489Z,101573.73
2023-10-05T05:19:18.022Z,101584.48
2023-10-05T05:19:48.540Z,101588.17
2023-10-05T05:20:18.939Z,101588.19
2023-10-05T05:20:49.359Z,101581.47
2023-10-05T05:21:19.793Z,101585.67
2023-10-05T05:21:50.220Z,101583.45
2023-10-05T05:22:20.679Z,101586.34
2023-10-05T05:22:51.090Z,101579.14
2023-10-05T05:23:21.494Z,101580.50
2023-10-05T05:23:51.912Z,101576.95
2023-10-05T05:24:22.338Z,101577.96
2023-10-05T05:24:52.790Z,101577.92
2023-10-05T05:25:23.245Z,101579.28
2023-10-05T05:25:53.684Z,101578.97
2023-10-05T05:26:24.089Z,101581.47
2023-10-05T05:26:54.491Z,101578.67
2023-10-05T05:27:24.910Z,101583.52
2023-10-05T05:27:55.379Z,101581.33
2023-10-05T05:28:25.873Z,101585.19
2023-10-05T05:28:56.306Z,101583.51
2023-10-05T05:29:26.737Z,101581.30
2023-10-05T05:29:57.184Z,101582.02
2023-10-05T05:30:27.647Z,101582.48
2023-10-05T05:30:58.145Z,101579.30
2023-10-05T05:31:28.849Z,101578.16
2023-10-05T05:31:59.349Z,101577.48
2023-10-05T05:32:29.853Z,101575.47
2023-10-05T05:33:00.345Z,101580.84
2023-10-05T05:33:31.007Z,101581.19
2023-10-05T05:34:01.450Z,101579.80
2023-10-05T05:34:31.905Z,101576.11
2023-10-05T05:35:02.345Z,101581.67
2023-10-05T05:35:32.768Z,101582.50
2023-10-05T05:36:03.203Z,101579.14
2023-10-05T05:36:33.636Z,101575.30
2023-10-05T05:37:04.097Z,101585.36
2023-10-05T05:37:34.540Z,101579.80
2023-10-05T05:38:04.931Z,101577.14
2023-10-05T05:38:35.355Z,101579.33
2023-10-05T05:39:05.965Z,101579.12
2023-10-05T05:39:36.575Z,101579.95
2023-10-05T05:40:07.021Z,101579.28
2023-10-05T05:40:37.440Z,101581.14
2023-10-05T05:41:07.845Z,101581.30
2023-10-05T05:41:38.365Z,101579.96
2023-10-05T05:42:08.843Z,101581.67
2023-10-05T05:42:39.227Z,101585.17
2023-10-05T05:43:09.685Z,101581.16
2023-10-05T05:43:40.131Z,101589.22
2023-10-05T05:44:10.528Z,101583.83
2023-10-05T05:44:40.943Z,101587.67
2023-10-05T05:45:11.365Z,101586.87
2023-10-05T05:45:41.785Z,101586.83
2023-10-05T05:46:12.250Z,101584.16
2023-10-05T05:46:42.784Z,101588.06
2023-10-05T05:47:13.264Z,101584.88
2023-10-05T05:47:43.719Z,101581.20